Time;durP1;ratioP1;P1;durP2;ratioP2;P2;SDS_P1;SDS_P2;PMS_P1;PMS_P2;Temp;Humidity;BMP_temperature;BMP_pressure;BME280_temperature;BME280_humidity;BME280_pressure;Samples;Min_cycle;Max_cycle;Signal;HPM_P1;HPM_P2
2022/04/01 00:00:15;;;;;;;4.95;2.72;;;;;;;;;;5000708;28;20080;-89
2022/04/01 00:02:41;;;;;;;5.97;2.55;;;;;;;;;;5004361;28;20037;-90
2022/04/01 00:05:07;;;;;;;5.30;3.10;;;;;;;;;;5001144;28;20045;-90
2022/04/01 00:07:34;;;;;;;8.43;2.83;;;;;;;;;;5005648;28;20041;-89
2022/04/01 00:10:00;;;;;;;7.55;2.90;;;;;;;;;;5005195;28;20033;-88
2022/04/01 00:12:27;;;;;;;9.88;2.63;;;;;;;;;;4983024;28;20037;-88
2022/04/01 00:14:53;;;;;;;7.28;3.20;;;;;;;;;;4987607;28;20038;-90
2022/04/01 00:17:20;;;;;;;5.97;2.95;;;;;;;;;;4983835;28;20044;-89
2022/04/01 00:19:46;;;;;;;6.43;2.90;;;;;;;;;;5022449;28;20042;-90
2022/04/01 00:22:12;;;;;;;5.22;2.33;;;;;;;;;;5014951;28;20029;-89
2022/04/01 00:24:39;;;;;;;8.15;2.45;;;;;;;;;;5009765;28;20168;-90
2022/04/01 00:27:08;;;;;;;4.85;2.42;;;;;;;;;;4986088;28;20048;-90
2022/04/01 00:29:35;;;;;;;5.10;2.30;;;;;;;;;;4993108;28;20147;-90
2022/04/01 00:32:01;;;;;;;6.82;1.98;;;;;;;;;;5020263;28;20042;-90
2022/04/01 00:34:29;;;;;;;8.45;2.35;;;;;;;;;;5001638;28;20041;-88
2022/04/01 00:36:55;;;;;;;3.67;2.00;;;;;;;;;;5008413;28;20561;-89
2022/04/01 00:39:23;;;;;;;3.85;2.00;;;;;;;;;;5011120;28;20042;-92
2022/04/01 00:41:49;;;;;;;3.95;1.98;;;;;;;;;;5003230;28;20459;-89
2022/04/01 00:44:20;;;;;;;8.77;2.38;;;;;;;;;;5006110;28;20029;-89
2022/04/01 00:46:48;;;;;;;3.90;2.10;;;;;;;;;;5006621;28;20041;-88
2022/04/01 00:49:14;;;;;;;3.50;1.90;;;;;;;;;;5009463;28;20083;-90
2022/04/01 00:51:42;;;;;;;6.75;2.30;;;;;;;;;;5008104;28;20041;-89
2022/04/01 00:54:09;;;;;;;4.45;2.42;;;;;;;;;;5006573;28;20041;-90
2022/04/01 00:56:36;;;;;;;2.63;1.90;;;;;;;;;;5008848;28;20201;-89
2022/04/01 00:59:06;;;;;;;7.68;1.90;;;;;;;;;;5002704;28;20037;-90
2022/04/01 01:01:35;;;;;;;3.95;2.10;;;;;;;;;;5002020;28;20203;-90
2022/04/01 01:04:02;;;;;;;5.75;1.98;;;;;;;;;;4989486;28;20045;-89
2022/04/01 01:06:31;;;;;;;3.75;1.73;;;;;;;;;;5005410;28;20076;-91
2022/04/01 01:08:57;;;;;;;4.18;1.60;;;;;;;;;;5007214;28;20029;-90
2022/04/01 01:11:25;;;;;;;3.78;2.05;;;;;;;;;;5018870;28;20041;-88
2022/04/01 01:13:51;;;;;;;3.65;1.85;;;;;;;;;;4992478;28;20445;-91
2022/04/01 01:16:19;;;;;;;4.60;1.73;;;;;;;;;;5011853;28;20037;-90
2022/04/01 01:18:46;;;;;;;5.97;2.03;;;;;;;;;;4992792;28;20029;-89
2022/04/01 01:21:12;;;;;;;6.10;2.00;;;;;;;;;;5001966;28;20492;-91
2022/04/01 01:23:42;;;;;;;4.38;1.90;;;;;;;;;;4989111;28;20042;-88
2022/04/01 01:26:08;;;;;;;4.07;2.10;;;;;;;;;;5002268;28;20458;-90
2022/04/01 01:28:34;;;;;;;13.45;2.63;;;;;;;;;;5005688;28;20045;-88
2022/04/01 01:31:01;;;;;;;5.65;2.10;;;;;;;;;;5009713;28;20065;-92
2022/04/01 01:33:27;;;;;;;3.83;1.90;;;;;;;;;;4990447;28;20041;-89
2022/04/01 01:35:53;;;;;;;5.88;2.10;;;;;;;;;;4992292;28;20115;-88
2022/04/01 01:38:19;;;;;;;7.68;1.88;;;;;;;;;;5003407;28;20067;-90
2022/04/01 01:40:45;;;;;;;3.30;2.05;;;;;;;;;;5002562;28;20116;-90
2022/04/01 01:43:13;;;;;;;3.42;2.30;;;;;;;;;;4989232;28;20168;-89
2022/04/01 01:45:39;;;;;;;4.65;2.03;;;;;;;;;;5003474;28;20088;-91
2022/04/01 01:48:06;;;;;;;3.67;2.00;;;;;;;;;;4985684;28;20373;-89
2022/04/01 01:56:22;;;;;;;6.13;2.45;;;;;;;;;;4966573;28;20046;-91
2022/04/01 01:58:48;;;;;;;6.75;1.90;;;;;;;;;;4972073;28;20042;-92
2022/04/01 02:01:15;;;;;;;3.60;2.22;;;;;;;;;;4987441;28;20045;-88
2022/04/01 02:03:42;;;;;;;4.25;2.30;;;;;;;;;;5005900;28;20482;-88
2022/04/01 02:06:08;;;;;;;3.35;1.60;;;;;;;;;;5007601;28;20115;-90
2022/04/01 02:08:34;;;;;;;4.30;1.75;;;;;;;;;;5004763;28;20045;-91
2022/04/01 02:11:01;;;;;;;6.97;2.05;;;;;;;;;;4990826;28;20072;-91
2022/04/01 02:13:28;;;;;;;3.30;1.88;;;;;;;;;;4989352;28;20038;-90
2022/04/01 02:15:54;;;;;;;4.93;2.30;;;;;;;;;;4990419;28;20049;-89
2022/04/01 02:18:20;;;;;;;4.85;2.10;;;;;;;;;;5006481;28;20128;-89
2022/04/01 02:20:48;;;;;;;6.90;2.10;;;;;;;;;;5006207;28;20503;-88
2022/04/01 02:23:16;;;;;;;7.15;2.83;;;;;;;;;;4995275;28;20498;-90
2022/04/01 02:25:42;;;;;;;2.17;1.70;;;;;;;;;;5004207;28;20124;-89
2022/04/01 02:28:12;;;;;;;3.92;2.25;;;;;;;;;;4990675;28;20486;-88
2022/04/01 02:30:39;;;;;;;3.35;1.92;;;;;;;;;;5003091;28;20045;-90
2022/04/01 02:33:08;;;;;;;4.15;2.15;;;;;;;;;;5005972;28;20045;-89
2022/04/01 02:35:35;;;;;;;3.25;1.92;;;;;;;;;;5010887;28;20045;-91
2022/04/01 02:38:01;;;;;;;5.93;2.10;;;;;;;;;;4985873;28;20037;-88
2022/04/01 02:40:28;;;;;;;4.28;2.13;;;;;;;;;;4996798;28;20044;-90
2022/04/01 02:42:54;;;;;;;4.97;2.00;;;;;;;;;;4993487;28;20030;-88
2022/04/01 02:45:21;;;;;;;4.00;2.00;;;;;;;;;;5002505;28;20628;-90
2022/04/01 02:47:48;;;;;;;8.23;2.10;;;;;;;;;;5005878;28;20042;-90
2022/04/01 02:50:14;;;;;;;2.88;1.70;;;;;;;;;;4992603;28;20037;-88
2022/04/01 02:52:40;;;;;;;4.60;1.80;;;;;;;;;;4994778;28;20049;-90
2022/04/01 02:55:07;;;;;;;4.65;2.00;;;;;;;;;;4999209;28;20091;-89
2022/04/01 02:57:33;;;;;;;3.60;2.05;;;;;;;;;;5014727;28;20099;-90
2022/04/01 03:00:00;;;;;;;5.82;2.30;;;;;;;;;;5012315;28;20045;-91
2022/04/01 03:02:27;;;;;;;4.20;1.65;;;;;;;;;;5010668;28;20599;-88
2022/04/01 03:04:53;;;;;;;9.57;2.15;;;;;;;;;;4999608;28;20048;-92
2022/04/01 03:07:19;;;;;;;4.28;1.80;;;;;;;;;;4997961;28;20462;-89
2022/04/01 03:09:45;;;;;;;3.85;1.80;;;;;;;;;;5012781;28;20048;-88
2022/04/01 03:12:11;;;;;;;3.22;1.70;;;;;;;;;;4992910;28;20720;-89
2022/04/01 03:14:41;;;;;;;4.53;2.00;;;;;;;;;;4991988;28;20045;-89
2022/04/01 03:17:08;;;;;;;3.40;1.33;;;;;;;;;;5013019;28;20116;-88
2022/04/01 03:19:35;;;;;;;5.20;1.70;;;;;;;;;;5007193;28;20119;-89
2022/04/01 03:22:01;;;;;;;5.15;1.88;;;;;;;;;;4988914;28;20041;-89
2022/04/01 03:24:27;;;;;;;5.72;1.85;;;;;;;;;;4997043;28;20038;-91
2022/04/01 03:26:54;;;;;;;3.88;1.77;;;;;;;;;;5014276;28;20037;-89
2022/04/01 03:29:20;;;;;;;5.82;1.98;;;;;;;;;;5017792;28;20029;-89
2022/04/01 03:31:47;;;;;;;4.97;1.70;;;;;;;;;;5007528;28;20096;-90
2022/04/01 03:34:14;;;;;;;1.73;1.48;;;;;;;;;;5012941;28;20033;-91
2022/04/01 03:36:40;;;;;;;2.38;1.60;;;;;;;;;;5009803;28;20033;-89
2022/04/01 03:39:06;;;;;;;3.95;1.80;;;;;;;;;;5012146;28;20037;-90
2022/04/01 03:41:33;;;;;;;4.25;2.05;;;;;;;;;;5004149;28;20061;-88
2022/04/01 03:44:00;;;;;;;3.33;1.58;;;;;;;;;;4987488;28;20473;-90
2022/04/01 03:46:30;;;;;;;5.78;2.03;;;;;;;;;;4992302;28;20037;-91
2022/04/01 03:49:01;;;;;;;2.65;1.60;;;;;;;;;;5001860;28;20073;-89
2022/04/01 03:51:29;;;;;;;7.82;1.75;;;;;;;;;;5006139;28;20529;-89
2022/04/01 03:53:57;;;;;;;3.35;1.77;;;;;;;;;;5011896;28;20120;-90
2022/04/01 03:56:29;;;;;;;4.15;1.95;;;;;;;;;;5006140;28;20070;-89
2022/04/01 03:58:59;;;;;;;8.68;2.00;;;;;;;;;;5009938;28;20450;-89
2022/04/01 04:01:25;;;;;;;4.30;1.70;;;;;;;;;;5006873;28;20065;-90
2022/04/01 04:03:51;;;;;;;3.63;1.90;;;;;;;;;;5011315;28;20041;-91
2022/04/01 04:06:18;;;;;;;2.35;1.88;;;;;;;;;;5001510;28;20069;-88
2022/04/01 04:08:46;;;;;;;4.85;2.20;;;;;;;;;;5010956;28;20133;-89
2022/04/01 04:11:13;;;;;;;3.10;1.70;;;;;;;;;;5003046;28;20407;-91
2022/04/01 04:13:41;;;;;;;3.83;1.88;;;;;;;;;;5004687;28;20040;-89
2022/04/01 04:16:15;;;;;;;3.40;2.05;;;;;;;;;;4990182;28;20045;-89
2022/04/01 04:18:43;;;;;;;7.97;2.08;;;;;;;;;;5020890;28;21211;-89
2022/04/01 04:21:15;;;;;;;3.92;1.70;;;;;;;;;;5003969;28;20121;-90
2022/04/01 04:23:48;;;;;;;3.47;1.80;;;;;;;;;;5007990;28;20091;-90
2022/04/01 04:26:16;;;;;;;3.67;1.40;;;;;;;;;;5007152;28;20490;-90
2022/04/01 04:28:50;;;;;;;2.45;1.58;;;;;;;;;;5007549;28;20041;-88
2022/04/01 04:31:18;;;;;;;4.32;1.83;;;;;;;;;;4997392;28;20038;-90
2022/04/01 04:33:46;;;;;;;7.47;1.90;;;;;;;;;;4996905;28;20594;-89
2022/04/01 04:36:14;;;;;;;3.95;1.80;;;;;;;;;;4996813;28;20049;-89
2022/04/01 04:38:43;;;;;;;3.55;2.17;;;;;;;;;;4999174;28;20041;-90
2022/04/01 04:41:09;;;;;;;8.52;2.15;;;;;;;;;;5009622;28;20033;-89
2022/04/01 04:43:38;;;;;;;6.00;1.83;;;;;;;;;;5006059;28;20046;-89
2022/04/01 04:46:05;;;;;;;3.25;1.70;;;;;;;;;;4999203;28;20033;-88
2022/04/01 04:48:33;;;;;;;3.67;1.80;;;;;;;;;;4996823;28;20048;-89
2022/04/01 04:51:02;;;;;;;5.60;1.90;;;;;;;;;;5003642;28;20042;-90
2022/04/01 04:53:30;;;;;;;5.25;1.60;;;;;;;;;;4991372;28;20092;-89
2022/04/01 04:55:59;;;;;;;6.45;1.80;;;;;;;;;;4999282;28;20374;-88
2022/04/01 04:58:34;;;;;;;5.40;1.80;;;;;;;;;;4997726;28;20104;-88
2022/04/01 05:01:06;;;;;;;3.00;1.63;;;;;;;;;;4994161;28;20048;-89
2022/04/01 05:03:35;;;;;;;4.53;1.77;;;;;;;;;;4987780;28;20100;-90
2022/04/01 05:06:02;;;;;;;3.53;1.58;;;;;;;;;;4988616;28;20701;-88
2022/04/01 05:08:34;;;;;;;4.63;1.65;;;;;;;;;;4973915;28;20047;-87
2022/04/01 05:11:10;;;;;;;3.50;1.70;;;;;;;;;;4998774;28;20037;-88
2022/04/01 05:13:42;;;;;;;4.47;1.70;;;;;;;;;;4993400;28;20050;-90
2022/04/01 05:16:08;;;;;;;;;;;;;;;;;;4998477;28;20041;-88
2022/04/01 05:18:37;;;;;;;6.18;1.48;;;;;;;;;;5010374;28;20440;-87
2022/04/01 05:21:04;;;;;;;2.38;1.30;;;;;;;;;;4996573;28;20203;-88
2022/04/01 05:23:34;;;;;;;3.88;1.58;;;;;;;;;;4999402;28;20087;-91
2022/04/01 05:26:06;;;;;;;3.45;1.85;;;;;;;;;;4996010;28;20041;-88
2022/04/01 05:28:36;;;;;;;2.75;1.40;;;;;;;;;;4999591;28;20053;-88
2022/04/01 05:31:07;;;;;;;3.45;1.40;;;;;;;;;;4994806;28;20046;-88
2022/04/01 05:33:54;;;;;;;2.28;1.60;;;;;;;;;;4995460;28;20041;-88
2022/04/01 05:36:22;;;;;;;4.30;1.40;;;;;;;;;;4985951;28;20076;-88
2022/04/01 05:38:48;;;;;;;4.05;1.50;;;;;;;;;;4986638;28;20084;-88
2022/04/01 05:41:17;;;;;;;5.13;1.73;;;;;;;;;;5003078;28;20069;-87
2022/04/01 05:43:46;;;;;;;4.78;1.70;;;;;;;;;;5019349;28;20523;-88
2022/04/01 05:46:12;;;;;;;5.55;1.80;;;;;;;;;;5002573;28;20030;-89
2022/04/01 05:48:39;;;;;;;5.25;1.60;;;;;;;;;;5007070;28;20410;-90
2022/04/01 05:51:06;;;;;;;7.95;1.73;;;;;;;;;;4985008;28;20093;-88
2022/04/01 05:53:37;;;;;;;7.18;1.65;;;;;;;;;;5015232;28;20422;-89
2022/04/01 05:56:03;;;;;;;3.65;1.48;;;;;;;;;;5006421;28;20042;-90
2022/04/01 05:58:30;;;;;;;4.70;1.77;;;;;;;;;;5004442;28;20594;-88
2022/04/01 06:01:01;;;;;;;3.28;1.65;;;;;;;;;;5003157;28;20038;-88
2022/04/01 06:03:43;;;;;;;5.05;1.63;;;;;;;;;;5011435;28;20048;-89
2022/04/01 06:06:09;;;;;;;4.40;1.63;;;;;;;;;;5003370;28;20125;-90
2022/04/01 06:08:38;;;;;;;4.32;1.38;;;;;;;;;;5003660;28;20053;-91
2022/04/01 06:11:14;;;;;;;8.45;2.00;;;;;;;;;;5006630;28;20041;-89
2022/04/01 06:13:40;;;;;;;6.45;1.80;;;;;;;;;;5000967;28;20073;-91
2022/04/01 06:16:20;;;;;;;6.32;1.80;;;;;;;;;;5003416;28;20493;-89
2022/04/01 06:18:57;;;;;;;4.38;1.50;;;;;;;;;;5007353;28;20041;-89
2022/04/01 06:21:24;;;;;;;2.65;1.45;;;;;;;;;;4999307;28;20099;-88
2022/04/01 06:23:56;;;;;;;2.53;1.40;;;;;;;;;;5005806;28;20041;-91
2022/04/01 06:26:25;;;;;;;3.33;1.42;;;;;;;;;;5005569;28;20041;-89
2022/04/01 06:29:00;;;;;;;3.97;1.95;;;;;;;;;;5001309;28;20068;-89
2022/04/01 06:31:31;;;;;;;2.90;1.30;;;;;;;;;;4999085;28;20044;-90
2022/04/01 06:34:04;;;;;;;3.63;1.67;;;;;;;;;;4998921;28;20057;-89
2022/04/01 06:36:41;;;;;;;5.38;1.67;;;;;;;;;;5006251;28;20038;-87
2022/04/01 06:39:10;;;;;;;3.97;1.70;;;;;;;;;;4991671;28;20184;-89
2022/04/01 06:41:57;;;;;;;3.45;1.58;;;;;;;;;;5007174;28;20032;-88
2022/04/01 06:44:23;;;;;;;7.22;1.90;;;;;;;;;;5003676;28;20068;-88
2022/04/01 06:46:51;;;;;;;3.33;1.35;;;2.10;99.90;;;;;;4991036;28;20096;-88
2022/04/01 06:49:18;;;;;;;5.03;1.63;;;;;;;;;;4983561;28;20031;-90
2022/04/01 06:51:44;;;;;;;3.05;1.40;;;;;;;;;;5006167;28;20112;-89
2022/04/01 06:54:10;;;;;;;4.55;1.75;;;;;;;;;;5010547;28;20076;-88
2022/04/01 06:56:36;;;;;;;5.00;1.90;;;;;;;;;;4987085;28;20045;-91
2022/04/01 06:59:03;;;;;;;4.95;1.45;;;;;;;;;;4997974;28;20026;-89
2022/04/01 07:01:29;;;;;;;5.70;1.98;;;;;;;;;;5012295;28;20067;-87
2022/04/01 07:03:56;;;;;;;4.82;1.90;;;;;;;;;;5005960;28;20056;-87
2022/04/01 07:06:22;;;;;;;6.75;1.67;;;;;;;;;;4993703;28;20505;-90
2022/04/01 07:09:00;;;;;;;4.97;1.60;;;;;;;;;;5021006;28;20103;-90
2022/04/01 07:11:26;;;;;;;3.65;1.45;;;;;;;;;;5010204;28;20050;-88
2022/04/01 07:13:54;;;;;;;7.25;1.60;;;;;;;;;;4989391;28;20581;-90
2022/04/01 07:16:20;;;;;;;7.18;1.67;;;;;;;;;;4986018;28;20045;-89
2022/04/01 07:18:46;;;;;;;7.32;1.73;;;;;;;;;;4999264;28;20030;-88
2022/04/01 07:24:02;;;;;;;2.75;1.35;;;;;;;;;;5005299;28;20546;-92
2022/04/01 07:26:28;;;;;;;2.90;1.30;;;;;;;;;;5009977;28;20083;-91
2022/04/01 07:28:55;;;;;;;2.90;1.30;;;;;;;;;;5009724;28;20495;-87
2022/04/01 07:49:25;;;;;;;4.72;1.80;;;;;;;;;;5008273;28;20053;-90
2022/04/01 07:55:01;;;;;;;5.35;2.17;;;;;;;;;;4990142;28;20440;-91
2022/04/01 07:57:27;;;;;;;4.78;2.28;;;;;;;;;;4983846;28;20112;-87
2022/04/01 07:59:54;;;;;;;4.55;2.47;;;;;;;;;;4992928;28;20037;-88
2022/04/01 08:02:23;;;;;;;5.60;2.78;;;;;;;;;;4972303;28;20042;-89
2022/04/01 08:04:53;;;;;;;5.53;3.00;;;;;;;;;;4987518;28;20045;-90
2022/04/01 08:07:22;;;;;;;5.18;2.75;;;;;;;;;;4968583;28;20522;-87
2022/04/01 08:09:53;;;;;;;4.88;2.92;;;;;;;;;;5003887;28;20498;-90
2022/04/01 08:12:19;;;;;;;5.80;2.50;;;;;;;;;;4989672;28;20376;-88
2022/04/01 08:14:46;;;;;;;6.07;2.83;;;;;;;;;;4978819;28;20487;-88
2022/04/01 08:17:16;;;;;;;6.28;2.72;;;;;;;;;;4974162;28;20486;-91
2022/04/01 08:19:43;;;;;;;7.90;3.30;;;;;;;;;;4985349;28;20115;-86
2022/04/01 08:22:09;;;;;;;6.18;2.70;;;;;;;;;;4993106;28;20053;-88
2022/04/01 08:24:36;;;;;;;9.48;3.55;;;;;;;;;;4991230;28;20115;-89
2022/04/01 08:27:05;;;;;;;4.32;3.00;;;;;;;;;;4993409;28;20096;-89
2022/04/01 08:29:36;;;;;;;5.85;3.33;;;;;;;;;;4983052;28;20038;-90
2022/04/01 08:32:05;;;;;;;7.32;3.88;;;;;;;;;;4985589;28;20044;-88
2022/04/01 08:34:31;;;;;;;6.70;3.38;;;;;;;;;;4989956;28;20079;-91
2022/04/01 08:37:02;;;;;;;8.00;3.80;;;;;;;;;;4990394;28;20084;-88
2022/04/01 08:39:35;;;;;;;7.57;3.75;;;;;;;;;;4981359;28;20030;-90
2022/04/01 08:42:05;;;;;;;9.43;3.85;;;;;;;;;;4995892;28;20132;-89
2022/04/01 08:44:31;;;;;;;6.35;4.03;;;;;;;;;;4965689;28;20041;-86
2022/04/01 08:46:57;;;;;;;7.80;4.05;;;;;;;;;;4978116;28;20065;-87
2022/04/01 08:49:24;;;;;;;7.50;4.03;;;;;;;;;;4970090;28;20076;-89
2022/04/01 08:51:50;;;;;;;8.05;4.38;;;;;;;;;;4973603;28;20514;-88
2022/04/01 08:54:16;;;;;;;8.38;4.85;;;2.10;99.90;;;;;;4993803;28;20075;-88
2022/04/01 08:56:41;;;;;;;9.55;4.95;;;2.60;99.90;;;;;;4957751;28;20073;-88
2022/04/01 08:59:07;;;;;;;7.32;4.55;;;2.60;99.90;;;;;;4980210;28;20081;-89
2022/04/01 09:01:44;;;;;;;11.48;4.90;;;2.60;99.90;;;;;;4951211;28;20042;-87
2022/04/01 09:04:21;;;;;;;7.68;4.43;;;2.60;99.90;;;;;;4982806;28;20045;-88
2022/04/01 09:06:48;;;;;;;9.30;4.53;;;2.60;99.90;;;;;;4982393;28;20499;-87
2022/04/01 09:09:29;;;;;;;10.40;5.13;;;2.60;99.90;;;;;;4992272;28;20554;-87
2022/04/01 09:12:16;;;;;;;7.75;4.57;;;2.60;99.90;;;;;;4978344;28;20104;-88
2022/04/01 09:14:53;;;;;;;14.27;5.22;;;2.60;99.90;;;;;;5008694;28;20045;-88
2022/04/01 09:17:20;;;;;;;7.75;5.10;;;2.60;99.90;;;;;;4969072;28;20030;-89
2022/04/01 09:19:46;;;;;;;9.63;5.60;;;2.50;99.90;;;;;;4967583;28;20042;-88
2022/04/01 09:22:23;;;;;;;15.43;5.78;;;2.40;99.90;;;;;;4982302;28;20042;-89
2022/04/01 09:25:04;;;;;;;10.38;5.28;;;2.40;99.90;;;;;;4996783;28;20046;-87
2022/04/01 09:27:58;;;;;;;8.25;5.30;;;2.40;99.90;;;;;;4990894;28;20117;-87
2022/04/01 09:30:27;;;;;;;7.53;4.90;;;2.40;99.90;;;;;;4987292;28;20398;-89
2022/04/01 09:33:00;;;;;;;10.57;5.38;;;2.40;99.90;;;;;;4983227;28;20402;-88
2022/04/01 09:35:29;;;;;;;9.18;5.20;;;2.50;99.90;;;;;;4977841;28;20053;-87
2022/04/01 09:38:07;;;;;;;11.48;5.82;;;2.50;99.90;;;;;;4969549;28;20772;-89
2022/04/01 09:40:35;;;;;;;13.75;6.03;;;2.60;99.90;;;;;;4988722;28;20041;-88
2022/04/01 09:43:01;;;;;;;12.85;5.85;;;2.50;99.90;;;;;;4976405;28;20030;-85
2022/04/01 09:45:30;;;;;;;8.68;5.60;;;2.50;99.90;;;;;;4981961;28;20038;-83
2022/04/01 09:48:04;;;;;;;12.07;5.90;;;2.60;99.90;;;;;;4986335;28;20334;-88
2022/04/01 09:50:36;;;;;;;10.10;6.35;;;;;;;;;;4968257;28;20104;-88
2022/04/01 09:53:29;;;;;;;9.43;5.55;;;2.50;99.90;;;;;;4979831;28;20073;-87
2022/04/01 09:55:55;;;;;;;9.95;6.00;;;2.60;99.90;;;;;;4951839;28;20076;-89
2022/04/01 09:58:22;;;;;;;9.48;5.72;;;2.80;99.90;;;;;;4979928;28;20096;-86
2022/04/01 10:00:48;;;;;;;10.02;6.00;;;2.90;99.90;;;;;;4973910;28;20304;-87
2022/04/01 10:03:20;;;;;;;8.82;6.10;;;2.90;99.90;;;;;;4974810;28;20065;-86
2022/04/01 10:05:53;;;;;;;9.93;5.82;;;2.90;99.90;;;;;;4969096;28;20069;-89
2022/04/01 10:08:26;;;;;;;10.10;6.18;;;2.90;99.90;;;;;;4977765;28;20381;-87
2022/04/01 10:10:55;;;;;;;9.15;7.00;;;3.00;99.90;;;;;;4979432;28;20629;-89
2022/04/01 10:13:30;;;;;;;11.35;6.00;;;3.00;99.90;;;;;;4984143;28;20049;-86
2022/04/01 10:15:57;;;;;;;11.60;6.40;;;3.00;99.90;;;;;;4975802;28;20100;-85
2022/04/01 10:18:24;;;;;;;11.48;6.65;;;3.00;99.90;;;;;;4994027;28;20507;-86
2022/04/01 10:20:54;;;;;;;13.90;6.95;;;3.00;99.90;;;;;;4995483;28;20064;-86
2022/04/01 10:23:23;;;;;;;11.02;6.20;;;3.10;99.90;;;;;;4981138;28;20037;-86
2022/04/01 10:26:06;;;;;;;8.82;5.40;;;3.10;99.90;;;;;;4982487;28;20099;-88
2022/04/01 10:28:35;;;;;;;10.10;5.05;;;3.00;99.90;;;;;;4978223;28;20030;-88
2022/04/01 10:31:07;;;;;;;10.93;5.35;;;2.90;99.90;;;;;;4982819;28;22422;-88
2022/04/01 10:33:36;;;;;;;11.60;4.60;;;2.90;99.90;;;;;;4978818;28;20088;-87
2022/04/01 10:36:42;;;;;;;8.18;4.15;;;2.90;99.90;;;;;;4963230;28;20086;-86
2022/04/01 10:39:10;;;;;;;8.15;3.72;;;2.80;99.90;;;;;;4885500;29;20055;-86
2022/04/01 10:41:36;;;;;;;7.30;3.78;;;2.70;99.90;;;;;;4981972;28;20053;-90
2022/04/01 10:44:02;;;;;;;4.97;3.35;;;2.70;99.90;;;;;;4965247;28;20093;-87
2022/04/01 10:46:28;;;;;;;5.75;3.22;;;2.60;99.90;;;;;;4964241;28;20038;-85
2022/04/01 10:52:23;;;;;;;5.88;3.33;;;2.70;99.90;;;;;;4995101;28;20052;-87
2022/04/01 10:55:05;;;;;;;6.13;3.42;;;2.80;99.90;;;;;;4976992;28;20687;-89
2022/04/01 10:57:34;;;;;;;8.38;3.53;;;2.80;99.90;;;;;;4993041;28;20053;-86
2022/04/01 11:00:04;;;;;;;6.78;3.45;;;2.70;99.90;;;;;;4966763;28;20525;-87
2022/04/01 11:02:30;;;;;;;5.50;3.22;;;2.70;99.90;;;;;;4979712;28;20080;-88
2022/04/01 11:04:57;;;;;;;4.93;2.92;;;2.70;99.90;;;;;;4965801;28;20068;-86
2022/04/01 11:07:30;;;;;;;6.72;3.13;;;2.70;99.90;;;;;;4970938;28;20069;-87
2022/04/01 11:10:05;;;;;;;7.15;3.42;;;2.70;99.90;;;;;;4981330;28;20046;-88
2022/04/01 11:12:41;;;;;;;8.48;3.03;;;2.70;99.90;;;;;;4984264;28;20072;-87
2022/04/01 11:15:09;;;;;;;5.70;3.08;;;2.70;99.90;;;;;;4966185;28;20054;-89
2022/04/01 11:17:35;;;;;;;6.68;3.20;;;2.70;99.90;;;;;;4979692;28;20046;-88
2022/04/01 11:20:07;;;;;;;5.80;3.55;;;2.70;99.90;;;;;;4983115;28;20042;-87
2022/04/01 11:22:37;;;;;;;6.50;3.13;;;2.80;99.90;;;;;;4978583;28;20072;-88
2022/04/01 11:25:04;;;;;;;8.57;4.00;;;2.80;99.90;;;;;;4980074;28;20042;-86
2022/04/01 11:27:30;;;;;;;7.00;3.88;;;2.70;99.90;;;;;;4963285;28;20046;-90
2022/04/01 11:30:14;;;;;;;8.52;3.92;;;2.70;99.90;;;;;;4966339;28;20050;-86
2022/04/01 11:32:42;;;;;;;7.70;3.70;;;2.70;99.90;;;;;;4973646;28;20528;-88
2022/04/01 11:35:10;;;;;;;5.22;3.15;;;2.60;99.90;;;;;;4989224;28;20057;-85
2022/04/01 11:37:41;;;;;;;5.70;2.83;;;2.70;99.90;;;;;;4992590;28;20041;-89
2022/04/01 11:40:26;;;;;;;6.80;3.50;;;2.70;99.90;;;;;;4985370;28;22172;-88
2022/04/01 11:43:03;;;;;;;3.80;2.70;;;2.70;99.90;;;;;;4986250;28;20034;-85
2022/04/01 11:45:40;;;;;;;6.57;2.75;;;2.80;99.90;;;;;;4968390;28;20065;-86
2022/04/01 11:48:28;;;;;;;8.05;3.45;;;2.90;99.90;;;;;;5002434;28;20050;-86
2022/04/01 11:50:57;;;;;;;3.88;2.65;;;2.90;99.90;;;;;;4981832;28;22257;-88
2022/04/01 11:53:26;;;;;;;6.32;2.78;;;2.90;99.90;;;;;;5000537;28;20049;-88
2022/04/01 11:55:58;;;;;;;6.13;3.20;;;3.00;99.90;;;;;;4980683;28;20137;-88
2022/04/01 11:58:33;;;;;;;3.92;2.70;;;2.90;99.90;;;;;;4982973;28;20140;-88
2022/04/01 12:00:58;;;;;;;5.75;3.00;;;2.80;99.90;;;;;;4983453;28;20439;-86
2022/04/01 12:03:24;;;;;;;4.03;2.50;;;2.80;99.90;;;;;;4963489;28;20327;-89
2022/04/01 12:08:41;;;;;;;7.47;2.72;;;2.90;99.90;;;;;;4966203;28;20052;-86
2022/04/01 12:08:45;;;;;;;3.28;2.10;;;2.90;99.90;;;;;;4994034;28;20600;-85
2022/04/01 12:11:12;;;;;;;5.80;2.15;;;3.00;99.90;;;;;;4982017;28;20787;-88
2022/04/01 12:13:55;;;;;;;5.65;1.88;;;3.10;99.90;;;;;;4963990;28;20537;-87
2022/04/01 12:16:22;;;;;;;3.38;1.80;;;3.20;99.90;;;;;;4982316;28;20125;-88
2022/04/01 12:18:51;;;;;;;5.53;1.85;;;3.20;99.90;;;;;;4979194;28;20062;-86
2022/04/01 12:21:23;;;;;;;3.58;1.77;;;3.30;99.90;;;;;;4964742;28;20037;-89
2022/04/01 12:23:51;;;;;;;4.10;1.98;;;3.30;99.90;;;;;;4980726;28;20297;-88
2022/04/01 12:26:25;;;;;;;5.05;2.30;;;3.30;99.90;;;;;;4962865;28;20486;-89
2022/04/01 12:28:51;;;;;;;4.35;1.98;;;3.40;99.90;;;;;;4993849;28;20041;-87
2022/04/01 12:31:24;;;;;;;5.47;2.10;;;3.40;99.90;;;;;;4990192;28;20046;-87
2022/04/01 12:33:59;;;;;;;4.13;1.90;;;3.40;99.90;;;;;;4986638;28;20037;-91
2022/04/01 12:36:30;;;;;;;4.53;2.17;;;3.40;99.90;;;;;;4983585;28;20049;-88
2022/04/01 12:39:09;;;;;;;4.97;2.25;;;3.40;99.90;;;;;;4987669;28;20042;-89
2022/04/01 12:41:48;;;;;;;4.25;2.58;;;3.50;99.90;;;;;;4986763;28;20042;-87
2022/04/01 12:44:14;;;;;;;4.93;2.80;;;3.50;99.90;;;;;;4989029;28;20041;-88
2022/04/01 12:46:48;;;;;;;4.57;2.15;;;3.60;99.90;;;;;;4954386;28;20569;-88
2022/04/01 12:49:21;;;;;;;5.57;2.20;;;3.60;99.90;;;;;;4987838;28;20171;-88
2022/04/01 12:51:57;;;;;;;3.30;2.15;;;3.70;99.90;;;;;;5008115;28;20183;-90
2022/04/01 12:54:29;;;;;;;3.40;1.85;;;3.70;99.90;;;;;;4981363;28;20988;-88
2022/04/01 12:56:56;;;;;;;8.73;2.22;;;3.70;99.90;;;;;;4984088;28;20042;-86
2022/04/01 12:59:23;;;;;;;4.35;2.28;;;3.80;99.90;;;;;;4967728;28;20039;-88
2022/04/01 13:01:56;;;;;;;5.97;2.05;;;3.90;99.90;;;;;;4986581;28;20205;-89
2022/04/01 13:04:22;;;;;;;4.47;1.92;;;4.00;99.90;;;;;;4984558;28;20125;-87
2022/04/01 13:07:18;;;;;;;4.57;2.13;;;4.00;99.90;;;;;;4984634;28;20133;-89
2022/04/01 13:09:55;;;;;;;4.53;2.03;;;4.00;99.90;;;;;;5001766;28;20073;-85
2022/04/01 13:12:28;;;;;;;5.32;2.30;;;4.00;99.90;;;;;;4986681;28;20425;-84
2022/04/01 13:15:04;;;;;;;7.88;2.70;;;4.10;99.90;;;;;;4985718;28;20046;-89
2022/04/01 13:17:44;;;;;;;4.28;2.38;;;4.10;99.90;;;;;;5005948;28;20179;-88
2022/04/01 13:20:12;;;;;;;9.05;2.40;;;4.10;99.90;;;;;;4989888;28;20052;-89
2022/04/01 13:22:42;;;;;;;10.23;2.60;;;4.00;99.90;;;;;;4968879;28;20038;-84
2022/04/01 13:25:15;;;;;;;4.75;2.05;;;4.00;99.90;;;;;;4984596;28;20593;-86
2022/04/01 13:27:46;;;;;;;4.80;2.30;;;4.00;99.90;;;;;;4981193;28;20050;-85
2022/04/01 13:30:14;;;;;;;9.57;2.35;;;4.10;99.90;;;;;;4983928;28;20612;-86
2022/04/01 13:32:41;;;;;;;2.90;1.98;;;4.20;99.90;;;;;;5000808;28;20042;-87
2022/04/01 13:35:07;;;;;;;4.30;2.00;;;4.20;99.90;;;;;;4982659;28;20045;-87
2022/04/01 13:37:37;;;;;;;4.10;1.80;;;4.20;99.90;;;;;;5018517;28;20072;-87
2022/04/01 13:40:04;;;;;;;5.55;2.10;;;4.20;99.90;;;;;;4996297;28;20125;-86
2022/04/01 13:42:34;;;;;;;6.45;2.05;;;4.20;99.90;;;;;;4986137;28;20042;-89
2022/04/01 13:45:00;;;;;;;4.85;1.95;;;4.20;99.90;;;;;;4977175;28;20415;-88
2022/04/01 13:47:26;;;;;;;4.47;1.98;;;4.20;99.90;;;;;;4964318;28;20069;-88
2022/04/01 13:49:52;;;;;;;3.30;1.95;;;4.20;99.90;;;;;;4963736;28;20045;-87
2022/04/01 13:52:19;;;;;;;4.45;1.75;;;4.10;99.90;;;;;;4989712;28;20038;-89
2022/04/01 13:54:47;;;;;;;5.65;2.00;;;4.10;99.90;;;;;;4964926;28;20561;-89
2022/04/01 13:57:14;;;;;;;3.38;1.90;;;4.20;99.90;;;;;;5006467;28;20148;-90
2022/04/01 13:59:43;;;;;;;7.18;2.58;;;4.20;99.90;;;;;;4981475;28;20164;-87
2022/04/01 14:02:49;;;;;;;5.22;2.13;;;4.30;99.90;;;;;;4961064;28;20452;-88
2022/04/01 14:05:24;;;;;;;5.10;2.03;;;4.30;99.90;;;;;;4947652;28;20101;-86
2022/04/01 14:07:50;;;;;;;4.78;2.13;;;4.30;99.90;;;;;;4969848;28;20393;-86
2022/04/01 14:10:16;;;;;;;4.45;2.38;;;4.40;99.90;;;;;;4954976;28;20034;-87
2022/04/01 14:12:42;;;;;;;4.13;1.88;;;4.40;99.90;;;;;;4968855;28;20403;-87
2022/04/01 14:15:11;;;;;;;5.28;2.60;;;4.40;99.90;;;;;;4967732;28;20046;-88
2022/04/01 14:17:40;;;;;;;3.33;2.05;;;4.40;99.90;;;;;;4970502;28;20044;-89
2022/04/01 14:20:07;;;;;;;6.10;2.03;;;;;;;;;;4984569;28;20064;-86
2022/04/01 14:22:33;;;;;;;3.78;1.73;;;;;;;;;;4987296;28;20041;-85
2022/04/01 14:25:00;;;;;;;7.13;2.10;;;;;;;;;;4968709;28;20517;-88
2022/04/01 14:27:37;;;;;;;7.05;2.10;;;;;;;;;;4985880;28;20054;-86
2022/04/01 14:30:17;;;;;;;4.75;1.70;;;;;;;;;;4985205;28;20037;-86
2022/04/01 14:32:44;;;;;;;7.03;2.10;;;;;;;;;;4974832;28;20046;-89
2022/04/01 14:35:10;;;;;;;3.65;2.03;;;;;;;;;;4988674;28;20492;-91
2022/04/01 14:37:36;;;;;;;5.50;2.05;;;;;;;;;;4994376;28;20056;-87
2022/04/01 14:40:06;;;;;;;7.45;1.73;;;;;;;;;;4990488;28;20184;-90
2022/04/01 14:42:32;;;;;;;7.30;2.00;;;;;;;;;;4989041;28;20049;-87
2022/04/01 14:45:01;;;;;;;3.08;2.08;;;;;;;;;;4992599;28;20100;-88